KACB

Details ICAO KACB
Name ANTRIM CO
Region United States
Timezone America/Detroit (UTC-5.0)
Plans Departing 1
Arriving 3
Stats Elevation 623 ft / 190 m (AMSL)
Location 44.988576° -85.198356°
Runways 1
Magnetic Variation 6.472° W
Sunrise 2017-12-18 13:15:43 UTC / 2017-12-18 08:15:43 Local
Sunset 2017-12-18 22:02:01 UTC / 2017-12-18 17:02:01 Local
Advertisement - Login to hide

Runways

ID Width Length Bearing (true) Bearing (mag) Surface Threshold Offset Overrun Length
02 100 ft / 30 m 5,003 ft / 1,525 m 17.37° 23.84° Asphalt 0 ft / 0 m 0 ft / 0 m
20 100 ft / 30 m 5,003 ft / 1,525 m 197.38° 203.85° Asphalt 0 ft / 0 m 0 ft / 0 m

Map

Weather


0- 5 10 15 20 25 30 35+ Temperature / ° C

Clouds and Precipitation
Forecast for 2017-12-18 12:00 UTC. Updated 12 minutes ago

Ground ~20,000 ft ~40,000 ft Winds

METAR

KACB 181135Z AUTO 19003KT 1SM BR OVC002 M02/M02 A2988 RMK AO2 T10191019

TAF

Not found

Frequencies

Recorded 119.27 MHz AWOS 3
Unicom 122.70 MHz CTAF/UNICOM
Warning: Do not use this data for real-world aviation or navigation. No guarantee of current accuracy is given.